sensor_id;sensor_type;location;lat;lon;timestamp;temperature;humidity
36856;DHT22;22788;51.434;6.786;2023-08-30T00:01:40;18.50;99.90
36856;DHT22;22788;51.434;6.786;2023-08-30T00:04:05;18.60;99.90
36856;DHT22;22788;51.434;6.786;2023-08-30T00:06:31;18.60;99.90
36856;DHT22;22788;51.434;6.786;2023-08-30T00:08:58;18.50;99.90
36856;DHT22;22788;51.434;6.786;2023-08-30T00:11:23;18.50;99.90
36856;DHT22;22788;51.434;6.786;2023-08-30T00:13:49;18.50;99.90
36856;DHT22;22788;51.434;6.786;2023-08-30T00:16:15;18.60;99.90
36856;DHT22;22788;51.434;6.786;2023-08-30T00:18:40;18.50;99.90
36856;DHT22;22788;51.434;6.786;2023-08-30T00:21:06;18.50;99.90
36856;DHT22;22788;51.434;6.786;2023-08-30T00:23:32;18.50;99.90
36856;DHT22;22788;51.434;6.786;2023-08-30T00:25:59;18.50;99.90
36856;DHT22;22788;51.434;6.786;2023-08-30T00:28:24;18.50;99.90
36856;DHT22;22788;51.434;6.786;2023-08-30T00:30:53;18.40;99.90
36856;DHT22;22788;51.434;6.786;2023-08-30T00:33:19;18.50;99.90
36856;DHT22;22788;51.434;6.786;2023-08-30T00:35:44;18.50;99.90
36856;DHT22;22788;51.434;6.786;2023-08-30T00:38:10;18.50;99.90
36856;DHT22;22788;51.434;6.786;2023-08-30T00:40:39;18.40;99.90
36856;DHT22;22788;51.434;6.786;2023-08-30T00:43:06;18.40;99.90
36856;DHT22;22788;51.434;6.786;2023-08-30T00:45:32;18.50;99.90
36856;DHT22;22788;51.434;6.786;2023-08-30T00:47:58;18.40;99.90
36856;DHT22;22788;51.434;6.786;2023-08-30T00:50:24;18.40;99.90
36856;DHT22;22788;51.434;6.786;2023-08-30T00:52:49;18.40;99.90
36856;DHT22;22788;51.434;6.786;2023-08-30T00:55:15;18.40;99.90
36856;DHT22;22788;51.434;6.786;2023-08-30T00:57:41;18.40;99.90
36856;DHT22;22788;51.434;6.786;2023-08-30T01:00:09;18.40;99.90
36856;DHT22;22788;51.434;6.786;2023-08-30T01:02:36;18.40;99.90
36856;DHT22;22788;51.434;6.786;2023-08-30T01:05:02;18.30;99.90
36856;DHT22;22788;51.434;6.786;2023-08-30T01:07:28;18.30;99.90
36856;DHT22;22788;51.434;6.786;2023-08-30T01:09:54;18.30;99.90
36856;DHT22;22788;51.434;6.786;2023-08-30T01:12:22;18.30;99.90
36856;DHT22;22788;51.434;6.786;2023-08-30T01:14:52;18.30;99.90
36856;DHT22;22788;51.434;6.786;2023-08-30T01:17:23;18.30;99.90
36856;DHT22;22788;51.434;6.786;2023-08-30T01:19:54;18.30;99.90
36856;DHT22;22788;51.434;6.786;2023-08-30T01:22:29;18.30;99.90
36856;DHT22;22788;51.434;6.786;2023-08-30T01:25:12;18.30;99.90
36856;DHT22;22788;51.434;6.786;2023-08-30T01:27:42;18.30;99.90
36856;DHT22;22788;51.434;6.786;2023-08-30T01:30:10;18.30;99.90
36856;DHT22;22788;51.434;6.786;2023-08-30T01:32:37;18.30;99.90
36856;DHT22;22788;51.434;6.786;2023-08-30T01:35:05;18.20;99.90
36856;DHT22;22788;51.434;6.786;2023-08-30T01:37:32;18.20;99.90
36856;DHT22;22788;51.434;6.786;2023-08-30T01:39:58;18.20;99.90
36856;DHT22;22788;51.434;6.786;2023-08-30T01:42:25;18.20;99.90
36856;DHT22;22788;51.434;6.786;2023-08-30T01:44:55;18.20;99.90
36856;DHT22;22788;51.434;6.786;2023-08-30T01:47:23;18.10;99.90
36856;DHT22;22788;51.434;6.786;2023-08-30T01:49:49;18.20;99.90
36856;DHT22;22788;51.434;6.786;2023-08-30T01:52:15;18.20;99.90
36856;DHT22;22788;51.434;6.786;2023-08-30T01:54:43;18.20;99.90
36856;DHT22;22788;51.434;6.786;2023-08-30T01:57:10;18.20;99.90
36856;DHT22;22788;51.434;6.786;2023-08-30T01:59:35;18.20;99.90
36856;DHT22;22788;51.434;6.786;2023-08-30T02:02:03;18.10;99.90
36856;DHT22;22788;51.434;6.786;2023-08-30T02:04:28;18.10;99.90
36856;DHT22;22788;51.434;6.786;2023-08-30T02:06:59;18.10;99.90
36856;DHT22;22788;51.434;6.786;2023-08-30T02:09:28;18.10;99.90
36856;DHT22;22788;51.434;6.786;2023-08-30T02:11:55;18.10;99.90
36856;DHT22;22788;51.434;6.786;2023-08-30T02:14:26;18.10;99.90
36856;DHT22;22788;51.434;6.786;2023-08-30T02:16:54;18.10;99.90
36856;DHT22;22788;51.434;6.786;2023-08-30T02:19:22;18.10;99.90
36856;DHT22;22788;51.434;6.786;2023-08-30T02:21:48;18.10;99.90
36856;DHT22;22788;51.434;6.786;2023-08-30T02:24:14;18.00;99.90
36856;DHT22;22788;51.434;6.786;2023-08-30T02:26:40;18.00;99.90
36856;DHT22;22788;51.434;6.786;2023-08-30T02:29:05;18.00;99.90
36856;DHT22;22788;51.434;6.786;2023-08-30T02:31:31;18.00;99.90
36856;DHT22;22788;51.434;6.786;2023-08-30T02:33:57;18.00;99.90
36856;DHT22;22788;51.434;6.786;2023-08-30T02:36:24;18.00;99.90
36856;DHT22;22788;51.434;6.786;2023-08-30T02:38:50;18.00;99.90
36856;DHT22;22788;51.434;6.786;2023-08-30T02:41:15;18.00;99.90
36856;DHT22;22788;51.434;6.786;2023-08-30T02:43:41;18.00;99.90
36856;DHT22;22788;51.434;6.786;2023-08-30T02:46:06;18.00;99.90
36856;DHT22;22788;51.434;6.786;2023-08-30T02:48:32;18.00;99.90
36856;DHT22;22788;51.434;6.786;2023-08-30T02:50:58;18.00;99.90
36856;DHT22;22788;51.434;6.786;2023-08-30T02:53:25;18.00;99.90
36856;DHT22;22788;51.434;6.786;2023-08-30T02:55:50;17.90;99.90
36856;DHT22;22788;51.434;6.786;2023-08-30T02:58:16;17.90;99.90
36856;DHT22;22788;51.434;6.786;2023-08-30T03:00:42;17.90;99.90
36856;DHT22;22788;51.434;6.786;2023-08-30T03:03:07;17.90;99.90
36856;DHT22;22788;51.434;6.786;2023-08-30T03:05:33;18.00;99.90
36856;DHT22;22788;51.434;6.786;2023-08-30T03:07:59;17.90;99.90
36856;DHT22;22788;51.434;6.786;2023-08-30T03:10:26;17.90;99.90
36856;DHT22;22788;51.434;6.786;2023-08-30T03:12:51;17.90;99.90
36856;DHT22;22788;51.434;6.786;2023-08-30T03:15:17;17.90;99.90
36856;DHT22;22788;51.434;6.786;2023-08-30T03:17:43;17.90;99.90
36856;DHT22;22788;51.434;6.786;2023-08-30T03:20:09;17.90;99.90
36856;DHT22;22788;51.434;6.786;2023-08-30T03:22:34;17.90;99.90
36856;DHT22;22788;51.434;6.786;2023-08-30T03:25:00;17.80;99.90
36856;DHT22;22788;51.434;6.786;2023-08-30T03:27:27;17.80;99.90
36856;DHT22;22788;51.434;6.786;2023-08-30T03:29:54;17.90;99.90
36856;DHT22;22788;51.434;6.786;2023-08-30T03:32:20;17.80;99.90
36856;DHT22;22788;51.434;6.786;2023-08-30T03:34:46;17.80;99.90
36856;DHT22;22788;51.434;6.786;2023-08-30T03:37:12;17.80;99.90
36856;DHT22;22788;51.434;6.786;2023-08-30T03:39:38;17.80;99.90
36856;DHT22;22788;51.434;6.786;2023-08-30T03:42:04;17.80;99.90
36856;DHT22;22788;51.434;6.786;2023-08-30T03:44:31;17.80;99.90
36856;DHT22;22788;51.434;6.786;2023-08-30T03:46:57;17.80;99.90
36856;DHT22;22788;51.434;6.786;2023-08-30T03:49:22;17.70;99.90
36856;DHT22;22788;51.434;6.786;2023-08-30T03:51:48;17.70;99.90
36856;DHT22;22788;51.434;6.786;2023-08-30T03:54:14;17.80;99.90
36856;DHT22;22788;51.434;6.786;2023-08-30T03:56:39;17.70;99.90
36856;DHT22;22788;51.434;6.786;2023-08-30T03:59:05;17.70;99.90
36856;DHT22;22788;51.434;6.786;2023-08-30T04:01:32;17.70;99.90
36856;DHT22;22788;51.434;6.786;2023-08-30T04:03:57;17.70;99.90
36856;DHT22;22788;51.434;6.786;2023-08-30T04:06:23;17.70;99.90
36856;DHT22;22788;51.434;6.786;2023-08-30T04:08:49;17.70;99.90
36856;DHT22;22788;51.434;6.786;2023-08-30T04:11:14;17.70;99.90
36856;DHT22;22788;51.434;6.786;2023-08-30T04:13:40;17.70;99.90
36856;DHT22;22788;51.434;6.786;2023-08-30T04:16:06;17.70;99.90
36856;DHT22;22788;51.434;6.786;2023-08-30T04:18:33;17.70;99.90
36856;DHT22;22788;51.434;6.786;2023-08-30T04:20:58;17.70;99.90
36856;DHT22;22788;51.434;6.786;2023-08-30T04:23:24;17.70;99.90
36856;DHT22;22788;51.434;6.786;2023-08-30T04:25:50;17.70;99.90
36856;DHT22;22788;51.434;6.786;2023-08-30T04:28:15;17.70;99.90
36856;DHT22;22788;51.434;6.786;2023-08-30T04:30:41;17.70;99.90
36856;DHT22;22788;51.434;6.786;2023-08-30T04:33:07;17.60;99.90
36856;DHT22;22788;51.434;6.786;2023-08-30T04:35:34;17.60;99.90
36856;DHT22;22788;51.434;6.786;2023-08-30T04:38:00;17.70;99.90
36856;DHT22;22788;51.434;6.786;2023-08-30T04:40:25;17.70;99.90
36856;DHT22;22788;51.434;6.786;2023-08-30T04:42:51;17.60;99.90
36856;DHT22;22788;51.434;6.786;2023-08-30T04:45:17;17.70;99.90
36856;DHT22;22788;51.434;6.786;2023-08-30T04:47:42;17.60;99.90
36856;DHT22;22788;51.434;6.786;2023-08-30T04:50:09;17.60;99.90
36856;DHT22;22788;51.434;6.786;2023-08-30T04:52:36;17.60;99.90
36856;DHT22;22788;51.434;6.786;2023-08-30T04:55:01;17.60;99.90
36856;DHT22;22788;51.434;6.786;2023-08-30T04:57:27;17.60;99.90
36856;DHT22;22788;51.434;6.786;2023-08-30T04:59:53;17.60;99.90
36856;DHT22;22788;51.434;6.786;2023-08-30T05:02:18;17.60;99.90
36856;DHT22;22788;51.434;6.786;2023-08-30T05:04:44;17.60;99.90
36856;DHT22;22788;51.434;6.786;2023-08-30T05:07:09;17.60;99.90
36856;DHT22;22788;51.434;6.786;2023-08-30T05:09:36;17.50;99.90
36856;DHT22;22788;51.434;6.786;2023-08-30T05:12:02;17.50;99.90
36856;DHT22;22788;51.434;6.786;2023-08-30T05:14:28;17.50;99.90
36856;DHT22;22788;51.434;6.786;2023-08-30T05:16:54;17.50;99.90
36856;DHT22;22788;51.434;6.786;2023-08-30T05:19:19;17.50;99.90
36856;DHT22;22788;51.434;6.786;2023-08-30T05:21:45;17.50;99.90
36856;DHT22;22788;51.434;6.786;2023-08-30T05:24:11;17.50;99.90
36856;DHT22;22788;51.434;6.786;2023-08-30T05:26:38;17.50;99.90
36856;DHT22;22788;51.434;6.786;2023-08-30T05:29:04;17.50;99.90
36856;DHT22;22788;51.434;6.786;2023-08-30T05:31:29;17.50;99.90
36856;DHT22;22788;51.434;6.786;2023-08-30T05:33:55;17.50;99.90
36856;DHT22;22788;51.434;6.786;2023-08-30T05:36:21;17.50;99.90
36856;DHT22;22788;51.434;6.786;2023-08-30T05:38:46;17.50;99.90
36856;DHT22;22788;51.434;6.786;2023-08-30T05:41:12;17.50;99.90
36856;DHT22;22788;51.434;6.786;2023-08-30T05:43:39;17.40;99.90
36856;DHT22;22788;51.434;6.786;2023-08-30T05:46:05;17.50;99.90
36856;DHT22;22788;51.434;6.786;2023-08-30T05:48:31;17.50;99.90
36856;DHT22;22788;51.434;6.786;2023-08-30T05:50:56;17.50;99.90
36856;DHT22;22788;51.434;6.786;2023-08-30T05:53:23;17.50;99.90
36856;DHT22;22788;51.434;6.786;2023-08-30T05:55:48;17.50;99.90
36856;DHT22;22788;51.434;6.786;2023-08-30T05:58:14;17.40;99.90
36856;DHT22;22788;51.434;6.786;2023-08-30T06:00:41;17.60;99.90
36856;DHT22;22788;51.434;6.786;2023-08-30T06:03:07;17.40;99.90
36856;DHT22;22788;51.434;6.786;2023-08-30T06:05:33;17.40;99.90
36856;DHT22;22788;51.434;6.786;2023-08-30T06:07:58;17.40;99.90
36856;DHT22;22788;51.434;6.786;2023-08-30T06:10:24;17.40;99.90
36856;DHT22;22788;51.434;6.786;2023-08-30T06:12:50;17.40;99.90
36856;DHT22;22788;51.434;6.786;2023-08-30T06:15:15;17.40;99.90
36856;DHT22;22788;51.434;6.786;2023-08-30T06:17:42;17.40;99.90
36856;DHT22;22788;51.434;6.786;2023-08-30T06:20:08;17.40;99.90
36856;DHT22;22788;51.434;6.786;2023-08-30T06:22:34;17.40;99.90
36856;DHT22;22788;51.434;6.786;2023-08-30T06:25:00;17.40;99.90
36856;DHT22;22788;51.434;6.786;2023-08-30T06:27:25;17.40;99.90
36856;DHT22;22788;51.434;6.786;2023-08-30T06:29:51;17.40;99.90
36856;DHT22;22788;51.434;6.786;2023-08-30T06:32:17;17.40;99.90
36856;DHT22;22788;51.434;6.786;2023-08-30T06:34:44;17.40;99.90
36856;DHT22;22788;51.434;6.786;2023-08-30T06:37:09;17.40;99.90
36856;DHT22;22788;51.434;6.786;2023-08-30T06:39:35;17.40;99.90
36856;DHT22;22788;51.434;6.786;2023-08-30T06:42:01;17.40;99.90
36856;DHT22;22788;51.434;6.786;2023-08-30T06:44:26;17.40;99.90
36856;DHT22;22788;51.434;6.786;2023-08-30T06:46:52;17.40;99.90
36856;DHT22;22788;51.434;6.786;2023-08-30T06:49:18;17.40;99.90
36856;DHT22;22788;51.434;6.786;2023-08-30T06:51:44;17.40;99.90
36856;DHT22;22788;51.434;6.786;2023-08-30T06:54:10;17.40;99.90
36856;DHT22;22788;51.434;6.786;2023-08-30T06:56:36;17.40;99.90
36856;DHT22;22788;51.434;6.786;2023-08-30T06:59:01;17.40;99.90
36856;DHT22;22788;51.434;6.786;2023-08-30T07:01:27;17.40;99.90
36856;DHT22;22788;51.434;6.786;2023-08-30T07:03:53;17.40;99.90
36856;DHT22;22788;51.434;6.786;2023-08-30T07:06:18;17.40;99.90
36856;DHT22;22788;51.434;6.786;2023-08-30T07:08:45;17.40;99.90
36856;DHT22;22788;51.434;6.786;2023-08-30T07:11:11;17.50;99.90
36856;DHT22;22788;51.434;6.786;2023-08-30T07:13:37;17.40;99.90
36856;DHT22;22788;51.434;6.786;2023-08-30T07:16:02;17.50;99.90
36856;DHT22;22788;51.434;6.786;2023-08-30T07:18:28;17.50;99.90
36856;DHT22;22788;51.434;6.786;2023-08-30T07:20:53;17.50;99.90
36856;DHT22;22788;51.434;6.786;2023-08-30T07:23:19;17.50;99.90
36856;DHT22;22788;51.434;6.786;2023-08-30T07:25:52;17.40;99.90
36856;DHT22;22788;51.434;6.786;2023-08-30T07:28:18;17.40;99.90
36856;DHT22;22788;51.434;6.786;2023-08-30T07:30:43;17.50;99.90
36856;DHT22;22788;51.434;6.786;2023-08-30T07:33:09;17.40;99.90
36856;DHT22;22788;51.434;6.786;2023-08-30T07:35:34;17.40;99.90
36856;DHT22;22788;51.434;6.786;2023-08-30T07:38:00;17.50;99.90
36856;DHT22;22788;51.434;6.786;2023-08-30T07:40:26;17.50;99.90
36856;DHT22;22788;51.434;6.786;2023-08-30T07:42:53;17.50;99.90
36856;DHT22;22788;51.434;6.786;2023-08-30T07:45:19;17.50;99.90
36856;DHT22;22788;51.434;6.786;2023-08-30T07:47:44;17.50;99.90
36856;DHT22;22788;51.434;6.786;2023-08-30T07:50:10;17.50;99.90
36856;DHT22;22788;51.434;6.786;2023-08-30T07:52:35;17.50;99.90
36856;DHT22;22788;51.434;6.786;2023-08-30T07:55:01;17.50;99.90
36856;DHT22;22788;51.434;6.786;2023-08-30T07:57:27;17.50;99.90
36856;DHT22;22788;51.434;6.786;2023-08-30T07:59:54;17.50;99.90
36856;DHT22;22788;51.434;6.786;2023-08-30T08:02:19;17.50;99.90
36856;DHT22;22788;51.434;6.786;2023-08-30T08:04:45;17.50;99.90
36856;DHT22;22788;51.434;6.786;2023-08-30T08:07:11;17.50;99.90
36856;DHT22;22788;51.434;6.786;2023-08-30T08:09:36;17.60;99.90
36856;DHT22;22788;51.434;6.786;2023-08-30T08:12:03;17.70;99.90
36856;DHT22;22788;51.434;6.786;2023-08-30T08:14:28;17.60;99.90
36856;DHT22;22788;51.434;6.786;2023-08-30T08:16:55;17.60;99.90
36856;DHT22;22788;51.434;6.786;2023-08-30T08:19:21;17.70;99.90
36856;DHT22;22788;51.434;6.786;2023-08-30T08:21:47;17.70;99.90
36856;DHT22;22788;51.434;6.786;2023-08-30T08:24:12;17.70;99.90
36856;DHT22;22788;51.434;6.786;2023-08-30T08:26:38;17.70;99.90
36856;DHT22;22788;51.434;6.786;2023-08-30T08:29:04;17.70;99.90
36856;DHT22;22788;51.434;6.786;2023-08-30T08:31:29;17.70;99.90
36856;DHT22;22788;51.434;6.786;2023-08-30T08:34:08;17.80;99.90
36856;DHT22;22788;51.434;6.786;2023-08-30T08:36:33;17.70;99.90
36856;DHT22;22788;51.434;6.786;2023-08-30T08:38:59;17.70;99.90
36856;DHT22;22788;51.434;6.786;2023-08-30T08:41:28;17.80;99.90
36856;DHT22;22788;51.434;6.786;2023-08-30T08:43:58;17.80;99.90
36856;DHT22;22788;51.434;6.786;2023-08-30T08:46:26;17.80;99.90
36856;DHT22;22788;51.434;6.786;2023-08-30T08:48:52;17.80;99.90
36856;DHT22;22788;51.434;6.786;2023-08-30T08:51:21;17.90;99.90
36856;DHT22;22788;51.434;6.786;2023-08-30T08:53:47;17.90;99.90
36856;DHT22;22788;51.434;6.786;2023-08-30T08:56:13;17.90;99.90
36856;DHT22;22788;51.434;6.786;2023-08-30T08:58:39;17.90;99.90
36856;DHT22;22788;51.434;6.786;2023-08-30T09:01:06;17.90;99.90
36856;DHT22;22788;51.434;6.786;2023-08-30T09:03:33;17.90;99.90
36856;DHT22;22788;51.434;6.786;2023-08-30T09:05:59;17.90;99.90
36856;DHT22;22788;51.434;6.786;2023-08-30T09:08:27;17.90;99.90
36856;DHT22;22788;51.434;6.786;2023-08-30T09:10:53;17.90;99.90
36856;DHT22;22788;51.434;6.786;2023-08-30T09:13:19;17.90;99.90
36856;DHT22;22788;51.434;6.786;2023-08-30T09:15:44;17.80;99.90
36856;DHT22;22788;51.434;6.786;2023-08-30T09:18:15;17.80;99.90
36856;DHT22;22788;51.434;6.786;2023-08-30T09:20:40;17.70;99.90
36856;DHT22;22788;51.434;6.786;2023-08-30T09:26:10;17.80;99.90
36856;DHT22;22788;51.434;6.786;2023-08-30T09:28:42;17.80;99.90
36856;DHT22;22788;51.434;6.786;2023-08-30T09:31:16;17.70;99.90
36856;DHT22;22788;51.434;6.786;2023-08-30T09:33:42;17.80;99.90
36856;DHT22;22788;51.434;6.786;2023-08-30T09:36:10;17.80;99.90
36856;DHT22;22788;51.434;6.786;2023-08-30T09:38:36;17.80;99.90
36856;DHT22;22788;51.434;6.786;2023-08-30T09:41:03;17.80;99.90
36856;DHT22;22788;51.434;6.786;2023-08-30T09:43:30;17.80;99.90
36856;DHT22;22788;51.434;6.786;2023-08-30T09:45:57;17.80;99.90
36856;DHT22;22788;51.434;6.786;2023-08-30T09:48:28;17.80;99.90
36856;DHT22;22788;51.434;6.786;2023-08-30T09:50:54;17.80;99.90
36856;DHT22;22788;51.434;6.786;2023-08-30T09:53:21;17.80;99.90
36856;DHT22;22788;51.434;6.786;2023-08-30T09:55:51;17.70;99.90
36856;DHT22;22788;51.434;6.786;2023-08-30T09:58:17;17.70;99.90
36856;DHT22;22788;51.434;6.786;2023-08-30T10:00:44;17.80;99.90
36856;DHT22;22788;51.434;6.786;2023-08-30T10:03:11;17.70;99.90
36856;DHT22;22788;51.434;6.786;2023-08-30T10:05:39;17.80;99.90
36856;DHT22;22788;51.434;6.786;2023-08-30T10:08:07;17.70;99.90
36856;DHT22;22788;51.434;6.786;2023-08-30T10:10:33;17.70;99.90
36856;DHT22;22788;51.434;6.786;2023-08-30T10:13:01;17.70;99.90
36856;DHT22;22788;51.434;6.786;2023-08-30T10:15:27;17.70;99.90
36856;DHT22;22788;51.434;6.786;2023-08-30T10:17:58;17.70;99.90
36856;DHT22;22788;51.434;6.786;2023-08-30T10:20:24;17.70;99.90
36856;DHT22;22788;51.434;6.786;2023-08-30T10:22:52;17.70;99.90
36856;DHT22;22788;51.434;6.786;2023-08-30T10:25:21;17.70;99.90
36856;DHT22;22788;51.434;6.786;2023-08-30T10:27:49;17.70;99.90
36856;DHT22;22788;51.434;6.786;2023-08-30T10:30:16;17.70;99.90
36856;DHT22;22788;51.434;6.786;2023-08-30T10:32:44;17.70;99.90
36856;DHT22;22788;51.434;6.786;2023-08-30T10:35:12;17.70;99.90
36856;DHT22;22788;51.434;6.786;2023-08-30T10:37:38;17.80;99.90
36856;DHT22;22788;51.434;6.786;2023-08-30T10:40:05;17.70;99.90
36856;DHT22;22788;51.434;6.786;2023-08-30T10:42:31;17.80;99.90
36856;DHT22;22788;51.434;6.786;2023-08-30T10:44:59;17.70;99.90
36856;DHT22;22788;51.434;6.786;2023-08-30T10:47:26;17.70;99.90
36856;DHT22;22788;51.434;6.786;2023-08-30T10:49:53;17.70;99.90
36856;DHT22;22788;51.434;6.786;2023-08-30T10:52:21;17.70;99.90
36856;DHT22;22788;51.434;6.786;2023-08-30T10:54:46;17.70;99.90
36856;DHT22;22788;51.434;6.786;2023-08-30T10:57:13;17.70;99.90
36856;DHT22;22788;51.434;6.786;2023-08-30T10:59:39;17.70;99.90
36856;DHT22;22788;51.434;6.786;2023-08-30T11:02:05;17.70;99.90
36856;DHT22;22788;51.434;6.786;2023-08-30T11:04:31;17.70;99.90
36856;DHT22;22788;51.434;6.786;2023-08-30T11:06:57;17.70;99.90
36856;DHT22;22788;51.434;6.786;2023-08-30T11:09:25;17.70;99.90
36856;DHT22;22788;51.434;6.786;2023-08-30T11:11:51;17.70;99.90
36856;DHT22;22788;51.434;6.786;2023-08-30T11:14:18;17.70;99.90
36856;DHT22;22788;51.434;6.786;2023-08-30T11:16:44;17.70;99.90
36856;DHT22;22788;51.434;6.786;2023-08-30T11:19:10;17.70;99.90
36856;DHT22;22788;51.434;6.786;2023-08-30T11:21:37;17.70;99.90
36856;DHT22;22788;51.434;6.786;2023-08-30T11:24:03;17.70;99.90
36856;DHT22;22788;51.434;6.786;2023-08-30T11:26:30;17.70;99.90
36856;DHT22;22788;51.434;6.786;2023-08-30T11:28:56;17.70;99.90
36856;DHT22;22788;51.434;6.786;2023-08-30T11:31:23;17.80;99.90
36856;DHT22;22788;51.434;6.786;2023-08-30T11:33:52;17.70;99.90
36856;DHT22;22788;51.434;6.786;2023-08-30T11:36:18;17.70;99.90
36856;DHT22;22788;51.434;6.786;2023-08-30T11:38:45;17.70;99.90
36856;DHT22;22788;51.434;6.786;2023-08-30T11:41:12;17.70;99.90
36856;DHT22;22788;51.434;6.786;2023-08-30T11:43:40;17.70;99.90
36856;DHT22;22788;51.434;6.786;2023-08-30T11:46:05;17.70;99.90
36856;DHT22;22788;51.434;6.786;2023-08-30T11:48:31;17.60;99.90
36856;DHT22;22788;51.434;6.786;2023-08-30T11:50:57;17.60;99.90
36856;DHT22;22788;51.434;6.786;2023-08-30T11:53:23;17.60;99.90
36856;DHT22;22788;51.434;6.786;2023-08-30T11:55:49;17.60;99.90
36856;DHT22;22788;51.434;6.786;2023-08-30T11:58:18;17.70;99.90
36856;DHT22;22788;51.434;6.786;2023-08-30T12:00:45;17.60;99.90
36856;DHT22;22788;51.434;6.786;2023-08-30T12:03:13;17.70;99.90
36856;DHT22;22788;51.434;6.786;2023-08-30T12:05:44;17.70;99.90
36856;DHT22;22788;51.434;6.786;2023-08-30T12:08:17;17.60;99.90
36856;DHT22;22788;51.434;6.786;2023-08-30T12:10:43;17.70;99.90
36856;DHT22;22788;51.434;6.786;2023-08-30T12:13:19;17.70;99.90
36856;DHT22;22788;51.434;6.786;2023-08-30T12:15:46;17.70;99.90
36856;DHT22;22788;51.434;6.786;2023-08-30T12:18:12;17.70;99.90
36856;DHT22;22788;51.434;6.786;2023-08-30T12:20:38;17.70;99.90
36856;DHT22;22788;51.434;6.786;2023-08-30T12:23:03;17.70;99.90
36856;DHT22;22788;51.434;6.786;2023-08-30T12:25:29;17.60;99.90
36856;DHT22;22788;51.434;6.786;2023-08-30T12:27:54;17.70;99.90
36856;DHT22;22788;51.434;6.786;2023-08-30T12:30:20;17.70;99.90
36856;DHT22;22788;51.434;6.786;2023-08-30T12:32:48;17.70;99.90
36856;DHT22;22788;51.434;6.786;2023-08-30T12:35:13;17.70;99.90
36856;DHT22;22788;51.434;6.786;2023-08-30T12:37:39;17.70;99.90
36856;DHT22;22788;51.434;6.786;2023-08-30T12:40:06;17.70;99.90
36856;DHT22;22788;51.434;6.786;2023-08-30T12:42:32;17.70;99.90
36856;DHT22;22788;51.434;6.786;2023-08-30T12:44:58;17.70;99.90
36856;DHT22;22788;51.434;6.786;2023-08-30T12:47:24;17.70;99.90
36856;DHT22;22788;51.434;6.786;2023-08-30T12:49:51;17.70;99.90
36856;DHT22;22788;51.434;6.786;2023-08-30T12:52:17;17.70;99.90
36856;DHT22;22788;51.434;6.786;2023-08-30T12:54:43;17.70;99.90
36856;DHT22;22788;51.434;6.786;2023-08-30T12:57:08;17.70;99.90
36856;DHT22;22788;51.434;6.786;2023-08-30T12:59:34;17.70;99.90
36856;DHT22;22788;51.434;6.786;2023-08-30T13:01:59;17.70;99.90
36856;DHT22;22788;51.434;6.786;2023-08-30T13:04:25;17.70;99.90
36856;DHT22;22788;51.434;6.786;2023-08-30T13:06:52;17.70;99.90
36856;DHT22;22788;51.434;6.786;2023-08-30T13:09:18;17.70;99.90
36856;DHT22;22788;51.434;6.786;2023-08-30T13:11:43;17.70;99.90
36856;DHT22;22788;51.434;6.786;2023-08-30T13:14:09;17.70;99.90
36856;DHT22;22788;51.434;6.786;2023-08-30T13:16:34;17.70;99.90
36856;DHT22;22788;51.434;6.786;2023-08-30T13:19:00;17.70;99.90
36856;DHT22;22788;51.434;6.786;2023-08-30T13:21:25;17.70;99.90
36856;DHT22;22788;51.434;6.786;2023-08-30T13:23:53;17.70;99.90
36856;DHT22;22788;51.434;6.786;2023-08-30T13:26:18;17.70;99.90
36856;DHT22;22788;51.434;6.786;2023-08-30T13:28:44;17.70;99.90
36856;DHT22;22788;51.434;6.786;2023-08-30T13:31:09;17.70;99.90
36856;DHT22;22788;51.434;6.786;2023-08-30T13:33:35;17.70;99.90
36856;DHT22;22788;51.434;6.786;2023-08-30T13:36:01;17.70;99.90
36856;DHT22;22788;51.434;6.786;2023-08-30T13:38:26;17.70;99.90
36856;DHT22;22788;51.434;6.786;2023-08-30T13:40:59;17.70;99.90
36856;DHT22;22788;51.434;6.786;2023-08-30T13:43:24;17.70;99.90
36856;DHT22;22788;51.434;6.786;2023-08-30T13:45:57;17.70;99.90
36856;DHT22;22788;51.434;6.786;2023-08-30T13:48:22;17.70;99.90
36856;DHT22;22788;51.434;6.786;2023-08-30T13:50:48;17.70;99.90
36856;DHT22;22788;51.434;6.786;2023-08-30T13:53:15;17.70;99.90
36856;DHT22;22788;51.434;6.786;2023-08-30T13:55:45;17.70;99.90
36856;DHT22;22788;51.434;6.786;2023-08-30T13:58:12;17.70;99.90
36856;DHT22;22788;51.434;6.786;2023-08-30T14:00:37;17.70;99.90
36856;DHT22;22788;51.434;6.786;2023-08-30T14:03:03;17.70;99.90
36856;DHT22;22788;51.434;6.786;2023-08-30T14:05:28;17.70;99.90
36856;DHT22;22788;51.434;6.786;2023-08-30T14:07:54;17.70;99.90
36856;DHT22;22788;51.434;6.786;2023-08-30T14:10:20;17.60;99.90
36856;DHT22;22788;51.434;6.786;2023-08-30T14:12:45;17.70;99.90
36856;DHT22;22788;51.434;6.786;2023-08-30T14:15:12;17.70;99.90
36856;DHT22;22788;51.434;6.786;2023-08-30T14:17:39;17.70;99.90
36856;DHT22;22788;51.434;6.786;2023-08-30T14:20:06;17.70;99.90
36856;DHT22;22788;51.434;6.786;2023-08-30T14:22:32;17.70;99.90
36856;DHT22;22788;51.434;6.786;2023-08-30T14:24:58;17.70;99.90
36856;DHT22;22788;51.434;6.786;2023-08-30T14:27:23;17.70;99.90
36856;DHT22;22788;51.434;6.786;2023-08-30T14:29:49;17.70;99.90
36856;DHT22;22788;51.434;6.786;2023-08-30T14:32:16;17.70;99.90
36856;DHT22;22788;51.434;6.786;2023-08-30T14:34:42;17.60;99.90
36856;DHT22;22788;51.434;6.786;2023-08-30T14:37:07;17.60;99.90
36856;DHT22;22788;51.434;6.786;2023-08-30T14:39:33;17.60;99.90
36856;DHT22;22788;51.434;6.786;2023-08-30T14:41:58;17.60;99.90
36856;DHT22;22788;51.434;6.786;2023-08-30T14:44:24;17.60;99.90
36856;DHT22;22788;51.434;6.786;2023-08-30T14:46:49;17.60;99.90
36856;DHT22;22788;51.434;6.786;2023-08-30T14:49:16;17.60;99.90
36856;DHT22;22788;51.434;6.786;2023-08-30T14:51:42;17.60;99.90
36856;DHT22;22788;51.434;6.786;2023-08-30T14:54:08;17.70;99.90
36856;DHT22;22788;51.434;6.786;2023-08-30T14:56:33;17.60;99.90
36856;DHT22;22788;51.434;6.786;2023-08-30T14:58:59;17.60;99.90
36856;DHT22;22788;51.434;6.786;2023-08-30T15:01:25;17.60;99.90
36856;DHT22;22788;51.434;6.786;2023-08-30T15:03:50;17.70;99.90
36856;DHT22;22788;51.434;6.786;2023-08-30T15:06:17;17.70;99.90
36856;DHT22;22788;51.434;6.786;2023-08-30T15:08:43;17.60;99.90
36856;DHT22;22788;51.434;6.786;2023-08-30T15:11:08;17.60;99.90
36856;DHT22;22788;51.434;6.786;2023-08-30T15:13:35;17.60;99.90
36856;DHT22;22788;51.434;6.786;2023-08-30T15:16:00;17.60;99.90
36856;DHT22;22788;51.434;6.786;2023-08-30T15:18:26;17.60;99.90
36856;DHT22;22788;51.434;6.786;2023-08-30T15:20:52;17.60;99.90
36856;DHT22;22788;51.434;6.786;2023-08-30T15:23:19;17.60;99.90
36856;DHT22;22788;51.434;6.786;2023-08-30T15:25:45;17.60;99.90
36856;DHT22;22788;51.434;6.786;2023-08-30T15:28:11;17.60;99.90